Time;durP1;ratioP1;P1;durP2;ratioP2;P2;SDS_P1;SDS_P2;PMS_P1;PMS_P2;Temp;Humidity;BMP_temperature;BMP_pressure;BME280_temperature;BME280_humidity;BME280_pressure;Samples;Min_cycle;Max_cycle;Signal;HPM_P1;HPM_P2
2023/07/29 00:03:31;;;;;;;12.07;9.77;;;;;;;18.97;74.59;100396.38;15536830;28;20144;-49
2023/07/29 00:11:06;;;;;;;12.05;9.90;;;;;;;19.08;74.78;100394.47;15547655;28;20050;-47
2023/07/29 00:18:39;;;;;;;9.20;8.20;;;;;;;18.76;74.19;100398.31;15557496;28;20053;-51
2023/07/29 00:26:13;;;;;;;;;;;;;;;18.70;73.83;100385.81;15556320;28;20451;-45
2023/07/29 00:33:45;;;;;;;14.93;9.20;;;;;;;18.74;73.74;100396.94;15493740;28;20350;-46
2023/07/29 00:41:22;;;;;;;8.68;7.68;;;;;;;18.60;73.73;100393.91;15495337;28;20050;-53
2023/07/29 00:48:55;;;;;;;10.60;7.25;;;;;;;18.31;74.41;100380.84;15544610;28;20414;-46
2023/07/29 00:56:31;;;;;;;10.70;6.88;;;;;;;18.30;73.92;100373.81;15521090;28;20062;-51
2023/07/29 01:04:05;;;;;;;10.57;7.50;;;;;;;18.17;74.12;100366.16;15552028;28;20057;-48
2023/07/29 01:11:50;;;;;;;10.20;8.63;;;;;;;18.21;73.73;100352.88;15537123;28;20153;-46
2023/07/29 01:19:43;;;;;;;11.60;7.65;;;;;;;18.05;73.91;100338.47;15537628;28;20146;-47
2023/07/29 01:27:19;;;;;;;9.40;7.28;;;;;;;17.99;74.04;100343.06;15536915;28;20120;-48
2023/07/29 01:35:03;;;;;;;10.18;8.10;;;;;;;17.91;74.65;100350.94;15518862;28;20073;-48
2023/07/29 01:42:41;;;;;;;8.70;7.78;;;;;;;18.02;74.63;100358.00;15535498;28;20690;-51
2023/07/29 01:50:14;;;;;;;10.30;7.20;;;;;;;17.89;73.98;100355.81;15534226;28;20124;-52
2023/07/29 01:57:48;;;;;;;9.68;7.30;;;;;;;17.67;74.28;100347.81;15516664;28;20073;-47
2023/07/29 02:05:22;;;;;;;5.95;5.38;;;;;;;17.68;73.56;100350.31;15525772;28;20046;-52
2023/07/29 02:12:56;;;;;;;;;;;;;;;17.42;74.15;100352.09;15543061;28;20069;-51
2023/07/29 02:20:29;;;;;;;6.28;5.43;;;;;;;17.40;74.06;100358.88;15534206;28;19984;-47
2023/07/29 02:28:04;;;;;;;20.65;6.75;;;;;;;17.23;75.07;100357.16;15549476;28;20065;-50
2023/07/29 02:35:37;;;;;;;9.90;7.93;;;;;;;17.10;75.28;100344.06;15471919;28;20133;-49
2023/07/29 02:43:11;;;;;;;;;;;;;;;17.39;74.44;100346.38;15472968;28;20054;-52
2023/07/29 02:50:44;;;;;;;8.50;6.85;;;;;;;17.32;74.70;100346.63;15531180;28;20412;-46
2023/07/29 02:58:18;;;;;;;7.43;6.63;;;;;;;17.36;74.50;100355.06;15535605;28;20042;-53
2023/07/29 03:05:58;;;;;;;12.70;7.15;;;;;;;17.36;74.67;100353.16;15517536;28;20037;-48
2023/07/29 03:13:36;;;;;;;8.77;5.97;;;;;;;17.32;74.40;100350.16;15526952;28;20435;-47
2023/07/29 03:21:10;;;;;;;13.07;6.05;;;;;;;17.44;74.24;100344.53;15524679;28;20088;-46
2023/07/29 03:28:44;;;;;;;8.32;5.97;;;;;;;17.26;74.04;100343.09;15547026;28;20131;-46
2023/07/29 03:36:19;;;;;;;10.95;6.47;;;;;;;17.25;74.43;100344.16;15547532;28;20386;-49
2023/07/29 03:43:54;;;;;;;11.85;6.82;;;;;;;17.36;74.32;100334.16;15537685;28;20038;-46
2023/07/29 03:51:27;;;;;;;11.63;8.75;;;;;;;17.57;74.23;100332.34;15511255;28;20153;-46
2023/07/29 03:59:05;;;;;;;16.73;9.85;;;;;;;17.67;74.93;100324.22;15533437;28;20065;-47
2023/07/29 04:06:37;;;;;;;17.58;12.07;;;;;;;17.87;74.82;100325.41;15509978;28;20042;-49
2023/07/29 04:14:12;;;;;;;16.30;11.88;;;;;;;17.98;74.73;100327.03;15506557;28;20480;-50
2023/07/29 04:21:46;;;;;;;14.80;11.10;;;;;;;17.86;74.61;100340.88;15529409;28;20057;-51
2023/07/29 04:29:20;;;;;;;;;;;;;;;17.89;75.06;100323.22;15520119;28;20049;-52
2023/07/29 04:36:53;;;;;;;14.35;11.98;;;;;;;17.90;75.79;100322.94;15556184;28;19921;-52
2023/07/29 04:44:27;;;;;;;16.40;13.20;;;;;;;17.54;77.46;100328.28;15555645;28;20049;-49
2023/07/29 04:52:02;;;;;;;16.27;12.65;;;;;;;17.82;77.58;100334.34;15527382;28;20037;-51
2023/07/29 04:59:36;;;;;;;;;;;;;;;18.08;76.92;100322.44;15551346;28;20076;-48
2023/07/29 05:07:10;;;;;;;13.88;12.38;;;;;;;18.18;77.79;100318.09;15525134;28;19972;-49
2023/07/29 05:14:47;;;;;;;14.82;11.90;;;;;;;18.60;77.48;100320.53;15515779;28;20125;-46
2023/07/29 05:22:19;;;;;;;15.57;11.90;;;;;;;18.89;77.71;100328.94;15541354;28;20483;-52
2023/07/29 05:29:53;;;;;;;13.80;10.80;;;;;;;18.75;79.44;100317.84;15517811;28;20042;-51
2023/07/29 05:37:26;;;;;;;13.43;9.98;;;;;;;19.05;79.50;100321.56;15545748;28;20042;-55
2023/07/29 05:45:01;;;;;;;11.35;10.00;;;;;;;19.33;77.84;100310.03;15538394;28;20065;-54
2023/07/29 05:52:35;;;;;;;12.38;8.82;;;;;;;19.38;77.40;100299.09;15540188;28;20085;-55
2023/07/29 06:00:10;;;;;;;9.82;8.75;;;;;;;19.59;76.50;100297.09;15544853;28;20526;-55
2023/07/29 06:07:47;;;;;;;11.20;7.72;;;;;;;20.13;75.67;100284.50;15544169;28;20034;-52
2023/07/29 06:15:25;;;;;;;10.75;6.72;;;;;;;19.77;76.58;100282.06;15532998;28;20148;-60
2023/07/29 06:22:59;;;;;;;8.13;6.43;;;;;;;21.05;73.74;100291.81;15549070;28;20041;-53
2023/07/29 06:30:34;;;;;;;7.53;5.50;;;;;;;20.68;73.95;100298.75;15533370;28;20053;-55
2023/07/29 06:38:07;;;;;;;6.38;5.45;;;;;;;20.91;73.35;100304.53;15544729;28;20046;-54
2023/07/29 06:45:41;;;;;;;5.30;4.60;;;;;;;21.66;72.30;100307.44;15542133;28;20060;-56
2023/07/29 06:53:14;;;;;;;6.72;4.47;;;;;;;22.12;71.92;100320.47;15531840;28;20132;-55
2023/07/29 07:00:48;;;;;;;4.63;4.20;;;;;;;21.98;70.80;100303.97;15532677;28;20042;-55
2023/07/29 07:08:21;;;;;;;7.43;4.00;;;;;;;22.37;69.92;100308.28;15549776;28;20045;-55
2023/07/29 07:15:56;;;;;;;4.65;3.50;;;;;;;21.89;71.86;100316.69;15520273;28;20193;-55
2023/07/29 07:23:29;;;;;;;3.92;3.22;;;;;;;22.48;68.76;100317.16;15517153;28;20052;-54
2023/07/29 07:31:04;;;;;;;6.35;3.63;;;;;;;22.83;66.64;100311.00;15540092;28;20050;-55
2023/07/29 07:38:39;;;;;;;5.78;3.38;;;;;;;23.23;66.65;100291.41;15523404;28;20041;-52
2023/07/29 07:46:13;;;;;;;3.33;2.88;;;;;;;23.64;65.30;100283.94;15545569;28;20069;-54
2023/07/29 07:53:46;;;;;;;4.95;3.15;;;;;;;22.40;70.29;100277.63;15547608;28;20191;-51
2023/07/29 08:01:20;;;;;;;3.15;2.85;;;;;;;23.53;63.87;100273.47;15551096;28;20526;-59
2023/07/29 08:08:54;;;;;;;2.83;2.60;;;;;;;23.90;65.13;100272.38;15557859;28;20045;-56
2023/07/29 08:16:29;;;;;;;2.90;2.42;;;;;;;24.22;62.04;100276.00;15539483;28;20049;-53
2023/07/29 08:24:01;;;;;;;4.40;2.35;;;;;;;24.28;61.29;100259.09;15542264;28;20046;-57
2023/07/29 08:31:40;;;;;;;2.35;2.00;;;;;;;23.90;61.26;100262.22;15555308;28;20121;-52
2023/07/29 08:39:12;;;;;;;3.78;2.25;;;;;;;24.14;61.47;100252.88;15555195;28;20053;-55
2023/07/29 08:46:47;;;;;;;5.15;2.40;;;;;;;24.41;60.80;100257.41;15540548;28;20064;-54
2023/07/29 08:54:21;;;;;;;4.15;2.05;;;;;;;23.76;61.15;100245.03;15554751;28;20121;-58
2023/07/29 09:01:57;;;;;;;3.17;2.00;;;;;;;23.72;61.58;100235.00;15555638;28;20138;-55
2023/07/29 09:09:30;;;;;;;2.65;2.25;;;;;;;23.57;64.55;100241.59;15537740;28;20499;-54
2023/07/29 09:17:08;;;;;;;3.17;2.08;;;;;;;23.93;63.31;100228.72;15554577;28;20066;-55
2023/07/29 09:24:41;;;;;;;2.55;1.98;;;;;;;23.90;60.62;100223.03;15552582;28;20050;-55
2023/07/29 09:32:22;;;;;;;2.63;2.20;;;;;;;24.06;60.01;100207.84;15553823;28;20314;-56
2023/07/29 09:39:55;;;;;;;4.20;1.90;;;;;;;24.48;59.57;100208.41;15553742;28;20129;-58
2023/07/29 09:47:31;;;;;;;1.95;1.80;;;;;;;24.05;59.58;100206.19;15536110;28;20133;-57
2023/07/29 09:55:07;;;;;;;4.25;1.88;;;;;;;25.39;56.78;100196.69;15552905;28;20411;-59
2023/07/29 10:02:43;;;;;;;4.20;2.30;;;;;;;24.78;57.75;100183.97;15550758;28;20076;-60
2023/07/29 10:10:16;;;;;;;1.92;1.80;;;;;;;24.62;58.77;100172.59;15551878;28;20046;-58
2023/07/29 10:17:51;;;;;;;3.30;1.60;;;;;;;24.63;54.61;100158.59;15533613;28;20077;-60
2023/07/29 10:25:25;;;;;;;3.72;1.60;;;;;;;24.94;55.89;100150.22;15549586;28;20096;-59
2023/07/29 10:33:03;;;;;;;1.67;1.40;;;;;;;24.45;55.47;100153.34;15550742;28;20058;-61
2023/07/29 10:40:48;;;;;;;2.47;1.77;;;;;;;24.82;55.48;100133.59;15532133;28;20050;-60
2023/07/29 10:48:44;;;;;;;2.50;1.67;;;;;;;24.58;55.13;100122.25;15549548;28;20046;-60
2023/07/29 10:56:26;;;;;;;5.95;2.00;;;;;;;22.94;63.04;100149.34;15548089;28;20503;-55
2023/07/29 11:04:26;;;;;;;10.82;2.70;;;;;;;20.31;78.75;100188.41;15542094;28;20447;-56
2023/07/29 11:12:06;;;;;;;7.70;4.25;;;;;;;21.19;79.50;100174.56;15547121;28;20057;-57
2023/07/29 11:19:41;;;;;;;7.53;3.95;;;;;;;21.90;77.25;100163.34;15528477;28;20054;-55
2023/07/29 11:27:14;;;;;;;9.20;4.13;;;;;;;22.34;76.55;100155.78;15548373;28;20363;-56
2023/07/29 11:34:48;;;;;;;5.65;4.10;;;;;;;22.51;75.78;100168.81;15551412;28;20124;-54
2023/07/29 11:42:21;;;;;;;7.72;3.88;;;;;;;22.41;74.81;100158.91;15541895;28;20053;-51
2023/07/29 11:49:59;;;;;;;8.85;3.35;;;;;;;21.84;77.07;100147.34;15559569;28;20512;-54
2023/07/29 11:57:34;;;;;;;7.25;3.60;;;;;;;22.06;75.62;100152.16;15559222;28;20053;-53
2023/07/29 12:05:10;;;;;;;4.63;3.42;;;;;;;21.61;78.09;100182.69;15540761;28;20124;-54
2023/07/29 12:12:47;;;;;;;7.50;3.80;;;;;;;21.59;78.13;100178.63;15558370;28;20109;-56
2023/07/29 12:20:22;;;;;;;9.27;4.15;;;;;;;21.19;78.85;100186.28;15540375;28;20053;-56
2023/07/29 12:27:55;;;;;;;3.90;2.08;;;;;;;21.53;77.42;100186.09;15539169;28;20045;-56
2023/07/29 12:35:37;;;;;;;2.13;1.33;;;;;;;21.85;74.61;100179.84;15523242;28;20553;-54
2023/07/29 12:43:10;;;;;;;1.52;1.15;;;;;;;22.52;72.19;100175.91;15538740;28;20050;-54
2023/07/29 12:50:44;;;;;;;2.70;1.25;;;;;;;22.71;68.66;100162.13;15555265;28;20448;-57
2023/07/29 12:58:17;;;;;;;2.67;1.30;;;;;;;22.47;71.08;100159.59;15526010;28;20046;-58
2023/07/29 13:05:52;;;;;;;4.13;1.45;;;;;;;22.34;72.32;100159.31;15551306;28;20046;-55
2023/07/29 13:13:25;;;;;;;2.88;1.70;;;;;;;22.55;70.73;100161.63;15532231;28;20371;-53
2023/07/29 13:21:00;;;;;;;4.22;2.40;;;;;;;22.56;72.56;100171.47;15544869;28;20141;-53
2023/07/29 13:28:33;;;;;;;4.47;2.00;;;;;;;23.34;71.26;100158.59;15550753;28;20347;-52
2023/07/29 13:36:08;;;;;;;2.47;1.63;;;;;;;24.11;66.63;100141.91;15550950;28;20522;-58
2023/07/29 13:43:41;;;;;;;2.20;1.38;;;;;;;23.67;66.29;100138.09;15544083;28;20037;-56
2023/07/29 13:51:15;;;;;;;4.47;1.70;;;;;;;24.18;66.28;100138.69;15546842;28;20050;-56
2023/07/29 13:58:48;;;;;;;2.47;1.40;;;;;;;23.37;65.46;100130.59;15542945;28;20049;-54
2023/07/29 14:06:23;;;;;;;2.78;1.35;;;;;;;24.04;64.05;100118.78;15538965;28;20077;-55
2023/07/29 14:13:55;;;;;;;2.75;1.30;;;;;;;23.90;63.55;100118.88;15528050;28;20477;-52
2023/07/29 14:21:30;;;;;;;1.90;1.50;;;;;;;23.56;63.76;100105.75;15547166;28;20052;-52
2023/07/29 14:29:03;;;;;;;1.50;1.30;;;;;;;23.23;65.89;100102.47;15547168;28;20069;-52
2023/07/29 14:36:38;;;;;;;2.95;1.50;;;;;;;23.99;63.32;100097.00;15547937;28;20491;-56
2023/07/29 14:44:11;;;;;;;2.35;1.40;;;;;;;23.74;63.95;100113.00;15548107;28;20053;-55
2023/07/29 14:51:45;;;;;;;6.68;1.92;;;;;;;23.51;64.08;100139.56;15523318;28;20334;-54
2023/07/29 14:59:18;;;;;;;4.30;1.70;;;;;;;23.76;63.34;100131.84;15531561;28;20117;-57
2023/07/29 15:06:52;;;;;;;1.83;1.50;;;;;;;23.90;63.61;100122.41;15529096;28;20124;-56
2023/07/29 15:14:25;;;;;;;1.75;1.27;;;;;;;24.16;62.08;100127.25;15528111;28;20073;-55
2023/07/29 15:22:04;;;;;;;2.20;1.40;;;;;;;24.79;62.32;100123.25;15542143;28;20049;-57
2023/07/29 15:29:37;;;;;;;9.77;2.42;;;;;;;23.72;65.55;100219.34;15531083;28;20140;-58
2023/07/29 15:37:13;;;;;;;7.32;3.08;;;;;;;20.59;73.67;100183.22;15525309;28;20054;-53
2023/07/29 15:44:46;;;;;;;6.00;2.25;;;;;;;21.15;72.10;100182.53;15541640;28;20112;-50
2023/07/29 15:52:20;;;;;;;3.97;2.22;;;;;;;21.47;72.20;100184.53;15529521;28;20108;-53
2023/07/29 15:59:54;;;;;;;2.45;1.70;;;;;;;21.90;70.21;100198.06;15536131;28;20082;-52
2023/07/29 16:07:29;;;;;;;5.07;2.78;;;;;;;21.35;75.19;100198.63;15543406;28;20054;-54
2023/07/29 16:15:02;;;;;;;4.00;2.50;;;;;;;20.73;77.06;100216.06;15534106;28;20666;-52
2023/07/29 16:22:38;;;;;;;3.05;2.42;;;;;;;21.06;75.96;100206.13;15535535;28;20486;-52
2023/07/29 16:30:11;;;;;;;5.55;2.00;;;;;;;20.96;75.91;100214.44;15555511;28;20046;-51
2023/07/29 16:37:46;;;;;;;5.28;2.40;;;;;;;21.02;75.56;100203.16;15555111;28;20081;-52
2023/07/29 16:45:19;;;;;;;4.18;2.30;;;;;;;20.92;76.55;100210.66;15556244;28;20057;-53
2023/07/29 16:52:56;;;;;;;5.60;2.25;;;;;;;21.37;75.50;100223.75;15556782;28;20058;-56
2023/07/29 17:00:30;;;;;;;5.53;2.22;;;;;;;20.87;76.72;100219.72;15555108;28;20038;-55
2023/07/29 17:08:07;;;;;;;4.47;2.03;;;;;;;21.53;72.99;100223.50;15554769;28;20133;-47
2023/07/29 17:15:39;;;;;;;4.60;2.00;;;;;;;21.65;73.44;100226.63;15553992;28;20050;-56
2023/07/29 17:23:14;;;;;;;2.90;2.03;;;;;;;21.75;71.49;100226.44;15567247;23;20052;-56
2023/07/29 17:30:50;;;;;;;6.35;2.67;;;;;;;21.51;74.90;100223.00;15557302;28;20414;-58
2023/07/29 17:38:24;;;;;;;3.08;2.33;;;;;;;22.01;71.54;100226.84;15513777;28;20050;-57
2023/07/29 17:45:57;;;;;;;4.13;2.53;;;;;;;21.90;71.25;100230.84;15498444;28;20058;-60
2023/07/29 17:53:32;;;;;;;5.75;2.30;;;;;;;21.81;71.40;100235.38;15500770;28;20466;-58
2023/07/29 18:01:04;;;;;;;6.45;2.30;;;;;;;21.56;72.65;100226.47;15557988;28;20108;-59
2023/07/29 18:08:39;;;;;;;4.05;2.30;;;;;;;21.39;73.84;100234.34;15524059;28;20054;-58
2023/07/29 18:16:13;;;;;;;5.03;2.88;;;;;;;21.32;73.38;100240.19;15495922;28;20046;-59
2023/07/29 18:23:47;;;;;;;4.80;2.85;;;;;;;21.48;73.25;100243.50;15495672;28;20402;-58
2023/07/29 18:31:20;;;;;;;5.05;2.60;;;;;;;21.24;73.52;100257.19;15475707;28;20043;-59
2023/07/29 18:38:54;;;;;;;3.80;3.10;;;;;;;20.85;74.13;100246.50;15466072;28;20507;-54
2023/07/29 18:46:29;;;;;;;6.57;3.67;;;;;;;20.60;75.30;100262.00;15474845;28;20518;-56
2023/07/29 18:54:03;;;;;;;6.25;4.68;;;;;;;20.85;73.46;100277.31;15423586;28;20092;-59
2023/07/29 19:01:36;;;;;;;7.57;4.30;;;;;;;21.03;72.59;100278.47;15456634;28;20523;-58
2023/07/29 19:09:10;;;;;;;5.20;3.70;;;;;;;20.81;73.30;100289.91;15471059;28;20372;-59
2023/07/29 19:16:44;;;;;;;5.03;3.75;;;;;;;20.85;72.52;100290.13;15477023;28;20058;-59
2023/07/29 19:24:18;;;;;;;4.15;3.70;;;;;;;20.73;72.94;100303.34;15491748;28;20046;-57
2023/07/29 19:31:51;;;;;;;5.05;3.60;;;;;;;20.27;74.16;100307.28;15492088;28;20062;-59
2023/07/29 19:39:26;;;;;;;8.00;3.90;;;;;;;20.22;74.39;100311.97;15511403;28;20612;-56
2023/07/29 19:46:58;;;;;;;8.07;3.88;;;;;;;20.36;73.32;100307.47;15503831;28;20432;-58
2023/07/29 19:54:32;;;;;;;6.47;4.00;;;;;;;20.08;74.29;100315.34;15501416;28;20460;-58
2023/07/29 20:02:06;;;;;;;6.78;4.30;;;;;;;19.91;74.50;100314.09;15517309;28;20057;-59
2023/07/29 20:09:40;;;;;;;8.38;5.13;;;;;;;20.17;73.23;100323.72;15555447;28;20144;-59
2023/07/29 20:17:13;;;;;;;7.28;5.18;;;;;;;19.81;74.33;100332.13;15498551;28;20046;-57
2023/07/29 20:24:47;;;;;;;8.52;5.57;;;;;;;19.93;73.92;100330.97;15502934;28;20050;-58
2023/07/29 20:32:20;;;;;;;8.95;5.82;;;;;;;19.93;73.48;100339.97;15494312;28;20056;-57
2023/07/29 20:39:55;;;;;;;12.82;7.97;;;;;;;19.88;73.46;100343.53;15536354;28;20056;-58
2023/07/29 20:47:29;;;;;;;7.70;6.90;;;;;;;19.80;73.98;100335.13;15500344;28;20141;-58
2023/07/29 20:55:03;;;;;;;;;;;;;;;19.74;73.99;100345.25;15492925;28;20057;-58
2023/07/29 21:02:36;;;;;;;7.85;6.53;;;;;;;19.60;74.07;100336.06;15490866;28;20310;-58
2023/07/29 21:10:10;;;;;;;8.90;7.70;;;;;;;19.58;74.19;100341.78;15490803;28;20069;-59
2023/07/29 21:17:43;;;;;;;10.35;7.55;;;;;;;19.40;74.11;100345.13;15474337;28;20050;-58
2023/07/29 21:25:18;;;;;;;10.75;7.93;;;;;;;19.53;74.02;100351.84;15473108;28;20046;-56
2023/07/29 21:32:51;;;;;;;10.57;8.15;;;;;;;19.34;74.44;100346.22;15472174;28;20093;-59
2023/07/29 21:40:27;;;;;;;9.40;6.97;;;;;;;19.32;74.25;100356.56;15468102;28;20091;-54
2023/07/29 21:48:01;;;;;;;11.70;7.60;;;;;;;19.05;75.51;100365.09;15468795;28;20066;-57
2023/07/29 21:55:35;;;;;;;;;;;;;;;18.82;75.88;100361.84;15479493;28;20220;-56
2023/07/29 22:03:08;;;;;;;9.73;7.65;;;;;;;18.94;76.40;100358.03;15520240;28;19929;-58
2023/07/29 22:10:42;;;;;;;;;;;;;;;18.94;76.59;100353.41;15539824;28;20130;-56
2023/07/29 22:18:15;;;;;;;11.60;9.07;;;;;;;18.87;76.79;100352.88;15495822;28;20099;-56
2023/07/29 22:25:58;;;;;;;8.98;7.97;;;;;;;18.55;77.13;100361.28;15496443;28;20047;-58
2023/07/29 22:33:31;;;;;;;11.80;6.95;;;;;;;18.66;76.36;100362.94;15496918;28;20115;-57
2023/07/29 22:41:06;;;;;;;10.40;7.18;;;;;;;18.65;76.04;100371.34;15477288;28;20503;-58
2023/07/29 22:48:39;;;;;;;8.27;6.82;;;;;;;18.53;76.47;100380.59;15494478;28;20050;-56
2023/07/29 22:56:14;;;;;;;7.38;6.10;;;;;;;18.31;77.05;100391.72;15493848;28;20384;-58
2023/07/29 23:03:46;;;;;;;8.70;5.55;;;;;;;18.12;77.30;100387.91;15495589;28;20644;-58
2023/07/29 23:11:36;;;;;;;8.80;5.68;;;;;;;18.28;76.85;100386.84;15486968;28;20057;-56
2023/07/29 23:19:12;;;;;;;14.02;6.25;;;;;;;18.46;75.29;100401.78;15493552;28;20064;-55
2023/07/29 23:26:46;;;;;;;7.45;6.18;;;;;;;18.49;74.68;100387.66;15446123;23;20053;-54
2023/07/29 23:34:21;;;;;;;8.80;6.22;;;;;;;18.24;75.18;100409.41;15455891;28;20120;-53
2023/07/29 23:41:55;;;;;;;12.27;6.10;;;;;;;18.13;75.72;100415.88;15499853;28;20145;-54
2023/07/29 23:49:28;;;;;;;7.18;6.13;;;;;;;17.75;76.36;100417.94;15493246;28;20050;-46
2023/07/29 23:57:02;;;;;;;7.28;6.32;;;;;;;18.03;75.28;100420.19;15480657;28;20153;-47
